Manns Harbor, North Carolina
Current Conditions -  °F | °C
As of 4:55 AM on Saturday 29 Nov 2014 (Local Time) from KMQI Reporting Station
Clear Clear  
Wind Chill: 30°   Ceiling: Unl
Heat Index: 30°   Visibility: 10mi
Dew Point: 28°   Wind: 0mph
Humidity: 92%   Direction: NA
Pressure: 30.33"   Gusts: NA
Location:  35.89°N, 75.76°W
Report Text: KMQI 290955Z AUTO 00000KT 10SM CLR M01/M02 A3033 RMK AO2 T10121023
Loading
Personal Weather Stations






























Interactive Weather Map New forecast layout! Learn more

10-Day Weather Forecast

Advertisements
Track Severe Weather on mobile